sensor_id;sensor_type;location;lat;lon;timestamp;temperature;humidity
12700;DHT22;6414;49.570;6.060;2023-07-29T00:01:44;18.80;99.90
12700;DHT22;6414;49.570;6.060;2023-07-29T00:04:30;18.80;99.90
12700;DHT22;6414;49.570;6.060;2023-07-29T00:07:16;18.80;99.90
12700;DHT22;6414;49.570;6.060;2023-07-29T00:10:02;18.80;99.90
12700;DHT22;6414;49.570;6.060;2023-07-29T00:12:49;18.70;99.90
12700;DHT22;6414;49.570;6.060;2023-07-29T00:15:35;18.80;99.90
12700;DHT22;6414;49.570;6.060;2023-07-29T00:18:22;18.80;99.90
12700;DHT22;6414;49.570;6.060;2023-07-29T00:21:08;18.80;99.90
12700;DHT22;6414;49.570;6.060;2023-07-29T00:23:54;18.80;99.90
12700;DHT22;6414;49.570;6.060;2023-07-29T00:26:40;18.90;99.90
12700;DHT22;6414;49.570;6.060;2023-07-29T00:29:26;18.90;99.90
12700;DHT22;6414;49.570;6.060;2023-07-29T00:32:12;18.80;99.90
12700;DHT22;6414;49.570;6.060;2023-07-29T00:34:59;18.80;99.90
12700;DHT22;6414;49.570;6.060;2023-07-29T00:37:45;18.80;99.90
12700;DHT22;6414;49.570;6.060;2023-07-29T00:40:31;18.80;99.90
12700;DHT22;6414;49.570;6.060;2023-07-29T00:43:18;18.80;99.90
12700;DHT22;6414;49.570;6.060;2023-07-29T00:46:05;18.80;99.90
12700;DHT22;6414;49.570;6.060;2023-07-29T00:48:51;18.80;99.90
12700;DHT22;6414;49.570;6.060;2023-07-29T00:51:37;18.80;99.90
12700;DHT22;6414;49.570;6.060;2023-07-29T00:54:24;18.80;99.90
12700;DHT22;6414;49.570;6.060;2023-07-29T00:57:10;18.80;99.90
12700;DHT22;6414;49.570;6.060;2023-07-29T00:59:56;18.70;99.90
12700;DHT22;6414;49.570;6.060;2023-07-29T01:02:42;18.80;99.90
12700;DHT22;6414;49.570;6.060;2023-07-29T01:05:35;18.80;99.90
12700;DHT22;6414;49.570;6.060;2023-07-29T01:08:43;18.80;99.90
12700;DHT22;6414;49.570;6.060;2023-07-29T01:11:35;18.80;99.90
12700;DHT22;6414;49.570;6.060;2023-07-29T01:17:13;18.80;99.90
12700;DHT22;6414;49.570;6.060;2023-07-29T01:20:09;18.80;99.90
12700;DHT22;6414;49.570;6.060;2023-07-29T01:22:54;18.80;99.90
12700;DHT22;6414;49.570;6.060;2023-07-29T01:25:41;18.80;99.90
12700;DHT22;6414;49.570;6.060;2023-07-29T01:28:28;18.80;99.90
12700;DHT22;6414;49.570;6.060;2023-07-29T01:31:16;18.80;99.90
12700;DHT22;6414;49.570;6.060;2023-07-29T01:34:06;18.70;99.90
12700;DHT22;6414;49.570;6.060;2023-07-29T01:36:46;18.70;99.90
12700;DHT22;6414;49.570;6.060;2023-07-29T01:39:33;18.80;99.90
12700;DHT22;6414;49.570;6.060;2023-07-29T01:42:19;18.80;99.90
12700;DHT22;6414;49.570;6.060;2023-07-29T01:45:06;18.80;99.90
12700;DHT22;6414;49.570;6.060;2023-07-29T01:47:51;18.80;99.90
12700;DHT22;6414;49.570;6.060;2023-07-29T01:50:38;18.80;99.90
12700;DHT22;6414;49.570;6.060;2023-07-29T01:53:24;18.80;99.90
12700;DHT22;6414;49.570;6.060;2023-07-29T01:56:11;18.80;99.90
12700;DHT22;6414;49.570;6.060;2023-07-29T01:58:57;18.80;99.90
12700;DHT22;6414;49.570;6.060;2023-07-29T02:01:43;18.80;99.90
12700;DHT22;6414;49.570;6.060;2023-07-29T02:04:29;18.80;99.90
12700;DHT22;6414;49.570;6.060;2023-07-29T02:07:16;18.80;99.90
12700;DHT22;6414;49.570;6.060;2023-07-29T02:10:03;18.80;99.90
12700;DHT22;6414;49.570;6.060;2023-07-29T02:12:48;18.80;99.90
12700;DHT22;6414;49.570;6.060;2023-07-29T02:15:35;18.80;99.90
12700;DHT22;6414;49.570;6.060;2023-07-29T02:18:21;18.80;99.90
12700;DHT22;6414;49.570;6.060;2023-07-29T02:21:07;18.80;99.90
12700;DHT22;6414;49.570;6.060;2023-07-29T02:23:52;18.90;99.90
12700;DHT22;6414;49.570;6.060;2023-07-29T02:26:39;18.90;99.90
12700;DHT22;6414;49.570;6.060;2023-07-29T02:29:25;18.90;99.90
12700;DHT22;6414;49.570;6.060;2023-07-29T02:32:11;18.90;99.90
12700;DHT22;6414;49.570;6.060;2023-07-29T02:34:57;18.80;99.90
12700;DHT22;6414;49.570;6.060;2023-07-29T02:37:44;18.80;99.90
12700;DHT22;6414;49.570;6.060;2023-07-29T02:40:33;18.80;99.90
12700;DHT22;6414;49.570;6.060;2023-07-29T02:43:16;18.90;99.90
12700;DHT22;6414;49.570;6.060;2023-07-29T02:46:03;18.80;99.90
12700;DHT22;6414;49.570;6.060;2023-07-29T02:48:49;18.80;99.90
12700;DHT22;6414;49.570;6.060;2023-07-29T02:51:35;18.80;99.90
12700;DHT22;6414;49.570;6.060;2023-07-29T02:54:21;18.80;99.90
12700;DHT22;6414;49.570;6.060;2023-07-29T02:57:07;18.80;99.90
12700;DHT22;6414;49.570;6.060;2023-07-29T02:59:54;18.70;99.90
12700;DHT22;6414;49.570;6.060;2023-07-29T03:02:41;18.70;99.90
12700;DHT22;6414;49.570;6.060;2023-07-29T03:05:27;18.60;99.90
12700;DHT22;6414;49.570;6.060;2023-07-29T03:08:14;18.50;99.90
12700;DHT22;6414;49.570;6.060;2023-07-29T03:11:11;18.60;99.90
12700;DHT22;6414;49.570;6.060;2023-07-29T03:13:46;18.40;99.90
12700;DHT22;6414;49.570;6.060;2023-07-29T03:16:32;17.90;99.90
12700;DHT22;6414;49.570;6.060;2023-07-29T03:19:19;17.80;99.90
12700;DHT22;6414;49.570;6.060;2023-07-29T03:22:05;17.80;99.90
12700;DHT22;6414;49.570;6.060;2023-07-29T03:24:53;17.80;99.90
12700;DHT22;6414;49.570;6.060;2023-07-29T03:27:39;17.80;99.90
12700;DHT22;6414;49.570;6.060;2023-07-29T03:30:27;17.80;99.90
12700;DHT22;6414;49.570;6.060;2023-07-29T03:33:13;17.80;99.90
12700;DHT22;6414;49.570;6.060;2023-07-29T03:35:59;17.90;99.90
12700;DHT22;6414;49.570;6.060;2023-07-29T03:38:45;17.90;99.90
12700;DHT22;6414;49.570;6.060;2023-07-29T03:41:31;17.90;99.90
12700;DHT22;6414;49.570;6.060;2023-07-29T03:44:18;18.00;99.90
12700;DHT22;6414;49.570;6.060;2023-07-29T03:47:04;17.90;99.90
12700;DHT22;6414;49.570;6.060;2023-07-29T03:49:51;17.90;99.90
12700;DHT22;6414;49.570;6.060;2023-07-29T03:52:38;17.90;99.90
12700;DHT22;6414;49.570;6.060;2023-07-29T03:55:24;17.90;99.90
12700;DHT22;6414;49.570;6.060;2023-07-29T03:58:10;17.90;99.90
12700;DHT22;6414;49.570;6.060;2023-07-29T04:00:56;17.90;99.90
12700;DHT22;6414;49.570;6.060;2023-07-29T04:03:42;18.00;99.90
12700;DHT22;6414;49.570;6.060;2023-07-29T04:06:29;18.00;99.90
12700;DHT22;6414;49.570;6.060;2023-07-29T04:09:15;18.00;99.90
12700;DHT22;6414;49.570;6.060;2023-07-29T04:12:01;18.10;99.90
12700;DHT22;6414;49.570;6.060;2023-07-29T04:14:47;18.20;99.90
12700;DHT22;6414;49.570;6.060;2023-07-29T04:17:34;18.20;99.90
12700;DHT22;6414;49.570;6.060;2023-07-29T04:20:20;18.20;99.90
12700;DHT22;6414;49.570;6.060;2023-07-29T04:23:06;18.10;99.90
12700;DHT22;6414;49.570;6.060;2023-07-29T04:25:53;17.70;99.90
12700;DHT22;6414;49.570;6.060;2023-07-29T04:28:39;17.70;99.90
12700;DHT22;6414;49.570;6.060;2023-07-29T04:31:25;17.60;99.90
12700;DHT22;6414;49.570;6.060;2023-07-29T04:34:11;17.70;99.90
12700;DHT22;6414;49.570;6.060;2023-07-29T04:36:58;17.70;99.90
12700;DHT22;6414;49.570;6.060;2023-07-29T04:39:44;17.70;99.90
12700;DHT22;6414;49.570;6.060;2023-07-29T04:42:30;17.50;99.90
12700;DHT22;6414;49.570;6.060;2023-07-29T04:45:17;17.40;99.90
12700;DHT22;6414;49.570;6.060;2023-07-29T04:48:03;17.40;99.90
12700;DHT22;6414;49.570;6.060;2023-07-29T04:50:50;17.50;99.90
12700;DHT22;6414;49.570;6.060;2023-07-29T04:53:36;17.50;99.90
12700;DHT22;6414;49.570;6.060;2023-07-29T04:56:23;17.50;99.90
12700;DHT22;6414;49.570;6.060;2023-07-29T04:59:09;17.30;99.90
12700;DHT22;6414;49.570;6.060;2023-07-29T05:01:55;17.40;99.90
12700;DHT22;6414;49.570;6.060;2023-07-29T05:04:42;17.30;99.90
12700;DHT22;6414;49.570;6.060;2023-07-29T05:07:28;17.30;99.90
12700;DHT22;6414;49.570;6.060;2023-07-29T05:10:14;17.40;99.90
12700;DHT22;6414;49.570;6.060;2023-07-29T05:13:01;17.50;99.90
12700;DHT22;6414;49.570;6.060;2023-07-29T05:15:48;17.50;99.90
12700;DHT22;6414;49.570;6.060;2023-07-29T05:18:33;17.60;99.90
12700;DHT22;6414;49.570;6.060;2023-07-29T05:21:19;17.60;99.90
12700;DHT22;6414;49.570;6.060;2023-07-29T05:24:06;17.70;99.90
12700;DHT22;6414;49.570;6.060;2023-07-29T05:26:52;17.70;99.90
12700;DHT22;6414;49.570;6.060;2023-07-29T05:29:38;17.70;99.90
12700;DHT22;6414;49.570;6.060;2023-07-29T05:32:24;17.60;99.90
12700;DHT22;6414;49.570;6.060;2023-07-29T05:35:11;17.60;99.90
12700;DHT22;6414;49.570;6.060;2023-07-29T05:37:58;17.70;99.90
12700;DHT22;6414;49.570;6.060;2023-07-29T05:40:44;17.70;99.90
12700;DHT22;6414;49.570;6.060;2023-07-29T05:43:30;17.70;99.90
12700;DHT22;6414;49.570;6.060;2023-07-29T05:46:17;17.80;99.90
12700;DHT22;6414;49.570;6.060;2023-07-29T05:49:03;17.80;99.90
12700;DHT22;6414;49.570;6.060;2023-07-29T05:51:49;17.80;99.90
12700;DHT22;6414;49.570;6.060;2023-07-29T05:54:35;17.80;99.90
12700;DHT22;6414;49.570;6.060;2023-07-29T05:57:22;17.80;99.90
12700;DHT22;6414;49.570;6.060;2023-07-29T06:00:09;17.70;99.90
12700;DHT22;6414;49.570;6.060;2023-07-29T06:02:55;17.70;99.90
12700;DHT22;6414;49.570;6.060;2023-07-29T06:05:41;17.70;99.90
12700;DHT22;6414;49.570;6.060;2023-07-29T06:08:27;17.70;99.90
12700;DHT22;6414;49.570;6.060;2023-07-29T06:11:14;17.80;99.90
12700;DHT22;6414;49.570;6.060;2023-07-29T06:14:00;17.70;99.90
12700;DHT22;6414;49.570;6.060;2023-07-29T06:16:47;17.80;99.90
12700;DHT22;6414;49.570;6.060;2023-07-29T06:19:33;17.90;99.90
12700;DHT22;6414;49.570;6.060;2023-07-29T06:22:19;18.00;99.90
12700;DHT22;6414;49.570;6.060;2023-07-29T06:25:06;17.90;99.90
12700;DHT22;6414;49.570;6.060;2023-07-29T06:27:52;17.90;99.90
12700;DHT22;6414;49.570;6.060;2023-07-29T06:30:38;17.90;99.90
12700;DHT22;6414;49.570;6.060;2023-07-29T06:33:24;18.00;99.90
12700;DHT22;6414;49.570;6.060;2023-07-29T06:36:11;18.10;99.90
12700;DHT22;6414;49.570;6.060;2023-07-29T06:38:57;18.40;99.90
12700;DHT22;6414;49.570;6.060;2023-07-29T06:41:43;18.50;99.90
12700;DHT22;6414;49.570;6.060;2023-07-29T06:44:29;18.50;99.90
12700;DHT22;6414;49.570;6.060;2023-07-29T06:47:15;18.50;99.90
12700;DHT22;6414;49.570;6.060;2023-07-29T06:50:01;18.50;99.90
12700;DHT22;6414;49.570;6.060;2023-07-29T06:52:47;18.50;99.90
12700;DHT22;6414;49.570;6.060;2023-07-29T06:55:33;18.50;99.90
12700;DHT22;6414;49.570;6.060;2023-07-29T06:58:20;18.50;99.90
12700;DHT22;6414;49.570;6.060;2023-07-29T07:01:06;18.50;99.90
12700;DHT22;6414;49.570;6.060;2023-07-29T07:03:53;18.50;99.90
12700;DHT22;6414;49.570;6.060;2023-07-29T07:06:39;18.60;99.90
12700;DHT22;6414;49.570;6.060;2023-07-29T07:09:25;18.70;99.90
12700;DHT22;6414;49.570;6.060;2023-07-29T07:12:11;18.80;99.90
12700;DHT22;6414;49.570;6.060;2023-07-29T07:14:59;19.00;99.90
12700;DHT22;6414;49.570;6.060;2023-07-29T07:17:44;18.90;99.90
12700;DHT22;6414;49.570;6.060;2023-07-29T07:20:30;18.90;99.90
12700;DHT22;6414;49.570;6.060;2023-07-29T07:23:17;18.90;99.90
12700;DHT22;6414;49.570;6.060;2023-07-29T07:26:02;18.90;99.90
12700;DHT22;6414;49.570;6.060;2023-07-29T07:28:49;18.90;99.90
12700;DHT22;6414;49.570;6.060;2023-07-29T07:31:35;18.80;99.90
12700;DHT22;6414;49.570;6.060;2023-07-29T07:34:21;18.80;99.90
12700;DHT22;6414;49.570;6.060;2023-07-29T07:37:08;18.70;99.90
12700;DHT22;6414;49.570;6.060;2023-07-29T07:39:54;18.60;99.90
12700;DHT22;6414;49.570;6.060;2023-07-29T07:42:40;18.40;99.90
12700;DHT22;6414;49.570;6.060;2023-07-29T07:45:27;18.50;99.90
12700;DHT22;6414;49.570;6.060;2023-07-29T07:48:14;18.80;99.90
12700;DHT22;6414;49.570;6.060;2023-07-29T07:51:04;18.80;99.90
12700;DHT22;6414;49.570;6.060;2023-07-29T07:53:46;18.80;99.90
12700;DHT22;6414;49.570;6.060;2023-07-29T07:56:32;18.60;99.90
12700;DHT22;6414;49.570;6.060;2023-07-29T07:59:18;18.80;99.90
12700;DHT22;6414;49.570;6.060;2023-07-29T08:02:05;18.70;99.90
12700;DHT22;6414;49.570;6.060;2023-07-29T08:04:51;18.90;99.90
12700;DHT22;6414;49.570;6.060;2023-07-29T08:07:38;18.80;99.90
12700;DHT22;6414;49.570;6.060;2023-07-29T08:10:24;19.00;99.90
12700;DHT22;6414;49.570;6.060;2023-07-29T08:13:10;19.30;99.90
12700;DHT22;6414;49.570;6.060;2023-07-29T08:15:56;19.40;99.90
12700;DHT22;6414;49.570;6.060;2023-07-29T08:18:42;19.40;99.90
12700;DHT22;6414;49.570;6.060;2023-07-29T08:21:29;19.00;99.90
12700;DHT22;6414;49.570;6.060;2023-07-29T08:24:15;18.70;99.90
12700;DHT22;6414;49.570;6.060;2023-07-29T08:27:02;18.70;99.90
12700;DHT22;6414;49.570;6.060;2023-07-29T08:29:48;18.60;99.90
12700;DHT22;6414;49.570;6.060;2023-07-29T08:32:35;18.50;99.90
12700;DHT22;6414;49.570;6.060;2023-07-29T08:35:21;18.70;99.90
12700;DHT22;6414;49.570;6.060;2023-07-29T08:38:07;18.70;99.90
12700;DHT22;6414;49.570;6.060;2023-07-29T08:44:20;18.90;99.90
12700;DHT22;6414;49.570;6.060;2023-07-29T08:47:03;19.10;99.90
12700;DHT22;6414;49.570;6.060;2023-07-29T08:49:50;19.20;99.90
12700;DHT22;6414;49.570;6.060;2023-07-29T08:52:35;19.10;99.90
12700;DHT22;6414;49.570;6.060;2023-07-29T08:55:23;19.30;99.90
12700;DHT22;6414;49.570;6.060;2023-07-29T08:58:09;19.30;99.90
12700;DHT22;6414;49.570;6.060;2023-07-29T09:00:55;19.50;99.90
12700;DHT22;6414;49.570;6.060;2023-07-29T09:03:41;19.50;99.90
12700;DHT22;6414;49.570;6.060;2023-07-29T09:06:28;19.50;99.90
12700;DHT22;6414;49.570;6.060;2023-07-29T09:09:14;19.50;99.90
12700;DHT22;6414;49.570;6.060;2023-07-29T09:12:01;19.60;99.90
12700;DHT22;6414;49.570;6.060;2023-07-29T09:14:51;20.00;99.90
12700;DHT22;6414;49.570;6.060;2023-07-29T09:17:34;20.30;99.90
12700;DHT22;6414;49.570;6.060;2023-07-29T09:20:25;20.00;99.90
12700;DHT22;6414;49.570;6.060;2023-07-29T09:23:11;20.00;99.90
12700;DHT22;6414;49.570;6.060;2023-07-29T09:26:04;21.30;99.90
12700;DHT22;6414;49.570;6.060;2023-07-29T09:28:50;21.30;99.90
12700;DHT22;6414;49.570;6.060;2023-07-29T09:31:33;21.80;99.90
12700;DHT22;6414;49.570;6.060;2023-07-29T09:34:20;22.20;99.90
12700;DHT22;6414;49.570;6.060;2023-07-29T09:37:06;22.20;99.90
12700;DHT22;6414;49.570;6.060;2023-07-29T09:39:52;22.50;99.90
12700;DHT22;6414;49.570;6.060;2023-07-29T09:42:38;21.30;99.90
12700;DHT22;6414;49.570;6.060;2023-07-29T09:45:25;21.20;99.90
12700;DHT22;6414;49.570;6.060;2023-07-29T09:48:11;20.90;99.90
12700;DHT22;6414;49.570;6.060;2023-07-29T09:50:57;20.80;99.90
12700;DHT22;6414;49.570;6.060;2023-07-29T09:53:44;21.10;99.90
12700;DHT22;6414;49.570;6.060;2023-07-29T09:56:29;21.80;99.90
12700;DHT22;6414;49.570;6.060;2023-07-29T09:59:18;22.50;99.90
12700;DHT22;6414;49.570;6.060;2023-07-29T10:02:03;22.50;99.90
12700;DHT22;6414;49.570;6.060;2023-07-29T10:04:49;22.70;99.90
12700;DHT22;6414;49.570;6.060;2023-07-29T10:07:38;22.20;99.90
12700;DHT22;6414;49.570;6.060;2023-07-29T10:10:23;21.60;99.90
12700;DHT22;6414;49.570;6.060;2023-07-29T10:13:09;21.60;99.90
12700;DHT22;6414;49.570;6.060;2023-07-29T10:15:56;22.20;99.90
12700;DHT22;6414;49.570;6.060;2023-07-29T10:18:42;22.30;99.90
12700;DHT22;6414;49.570;6.060;2023-07-29T10:21:28;22.30;99.90
12700;DHT22;6414;49.570;6.060;2023-07-29T10:24:15;22.80;99.90
12700;DHT22;6414;49.570;6.060;2023-07-29T10:27:01;23.20;99.90
12700;DHT22;6414;49.570;6.060;2023-07-29T10:29:47;23.20;99.90
12700;DHT22;6414;49.570;6.060;2023-07-29T10:32:33;23.70;99.90
12700;DHT22;6414;49.570;6.060;2023-07-29T10:35:19;23.60;99.90
12700;DHT22;6414;49.570;6.060;2023-07-29T10:38:05;22.40;99.90
12700;DHT22;6414;49.570;6.060;2023-07-29T10:40:52;22.20;99.90
12700;DHT22;6414;49.570;6.060;2023-07-29T10:43:37;22.10;99.90
12700;DHT22;6414;49.570;6.060;2023-07-29T10:46:24;21.60;99.90
12700;DHT22;6414;49.570;6.060;2023-07-29T10:49:11;21.50;99.90
12700;DHT22;6414;49.570;6.060;2023-07-29T10:51:57;21.50;99.90
12700;DHT22;6414;49.570;6.060;2023-07-29T10:54:44;21.30;99.90
12700;DHT22;6414;49.570;6.060;2023-07-29T10:57:38;21.60;99.90
12700;DHT22;6414;49.570;6.060;2023-07-29T11:00:23;22.10;99.90
12700;DHT22;6414;49.570;6.060;2023-07-29T11:03:09;22.10;99.90
12700;DHT22;6414;49.570;6.060;2023-07-29T11:05:55;22.30;99.90
12700;DHT22;6414;49.570;6.060;2023-07-29T11:08:40;22.20;99.90
12700;DHT22;6414;49.570;6.060;2023-07-29T11:11:26;22.10;99.90
12700;DHT22;6414;49.570;6.060;2023-07-29T11:14:13;22.10;99.90
12700;DHT22;6414;49.570;6.060;2023-07-29T11:16:59;22.40;99.90
12700;DHT22;6414;49.570;6.060;2023-07-29T11:19:46;22.20;99.90
12700;DHT22;6414;49.570;6.060;2023-07-29T11:22:32;22.40;99.90
12700;DHT22;6414;49.570;6.060;2023-07-29T11:25:18;22.40;99.90
12700;DHT22;6414;49.570;6.060;2023-07-29T11:28:04;22.70;99.90
12700;DHT22;6414;49.570;6.060;2023-07-29T11:30:50;22.90;99.90
12700;DHT22;6414;49.570;6.060;2023-07-29T11:33:38;22.90;99.90
12700;DHT22;6414;49.570;6.060;2023-07-29T11:36:23;22.60;99.90
12700;DHT22;6414;49.570;6.060;2023-07-29T11:39:09;22.80;99.90
12700;DHT22;6414;49.570;6.060;2023-07-29T11:41:55;23.10;99.90
12700;DHT22;6414;49.570;6.060;2023-07-29T11:44:41;22.70;99.90
12700;DHT22;6414;49.570;6.060;2023-07-29T11:47:27;22.80;99.90
12700;DHT22;6414;49.570;6.060;2023-07-29T11:50:14;22.60;99.90
12700;DHT22;6414;49.570;6.060;2023-07-29T11:52:59;22.60;99.90
12700;DHT22;6414;49.570;6.060;2023-07-29T11:55:49;22.90;99.90
12700;DHT22;6414;49.570;6.060;2023-07-29T11:58:39;23.00;99.90
12700;DHT22;6414;49.570;6.060;2023-07-29T12:01:29;23.30;99.90
12700;DHT22;6414;49.570;6.060;2023-07-29T12:04:20;23.30;99.90
12700;DHT22;6414;49.570;6.060;2023-07-29T12:07:10;23.50;99.90
12700;DHT22;6414;49.570;6.060;2023-07-29T12:09:59;23.60;99.90
12700;DHT22;6414;49.570;6.060;2023-07-29T12:12:51;23.20;99.90
12700;DHT22;6414;49.570;6.060;2023-07-29T12:15:41;22.90;99.90
12700;DHT22;6414;49.570;6.060;2023-07-29T12:18:34;22.70;99.90
12700;DHT22;6414;49.570;6.060;2023-07-29T12:21:20;22.80;99.90
12700;DHT22;6414;49.570;6.060;2023-07-29T12:24:09;23.00;99.90
12700;DHT22;6414;49.570;6.060;2023-07-29T12:26:59;23.10;99.90
12700;DHT22;6414;49.570;6.060;2023-07-29T12:29:43;23.10;99.90
12700;DHT22;6414;49.570;6.060;2023-07-29T12:32:30;23.00;99.90
12700;DHT22;6414;49.570;6.060;2023-07-29T12:35:20;23.00;99.90
12700;DHT22;6414;49.570;6.060;2023-07-29T12:38:07;22.50;99.90
12700;DHT22;6414;49.570;6.060;2023-07-29T12:40:58;22.60;99.90
12700;DHT22;6414;49.570;6.060;2023-07-29T12:43:45;22.60;99.90
12700;DHT22;6414;49.570;6.060;2023-07-29T12:46:32;22.70;99.90
12700;DHT22;6414;49.570;6.060;2023-07-29T12:49:18;22.60;99.90
12700;DHT22;6414;49.570;6.060;2023-07-29T12:52:08;22.60;99.90
12700;DHT22;6414;49.570;6.060;2023-07-29T12:54:54;22.50;99.90
12700;DHT22;6414;49.570;6.060;2023-07-29T12:57:43;22.70;99.90
12700;DHT22;6414;49.570;6.060;2023-07-29T13:00:34;22.60;99.90
12700;DHT22;6414;49.570;6.060;2023-07-29T13:03:18;22.50;99.90
12700;DHT22;6414;49.570;6.060;2023-07-29T13:06:07;22.60;99.90
12700;DHT22;6414;49.570;6.060;2023-07-29T13:08:53;22.70;99.90
12700;DHT22;6414;49.570;6.060;2023-07-29T13:11:52;22.60;99.90
12700;DHT22;6414;49.570;6.060;2023-07-29T13:14:37;22.50;99.90
12700;DHT22;6414;49.570;6.060;2023-07-29T13:17:24;22.50;99.90
12700;DHT22;6414;49.570;6.060;2023-07-29T13:20:13;22.50;99.90
12700;DHT22;6414;49.570;6.060;2023-07-29T13:23:03;22.60;99.90
12700;DHT22;6414;49.570;6.060;2023-07-29T13:25:46;22.80;99.90
12700;DHT22;6414;49.570;6.060;2023-07-29T13:28:35;22.90;99.90
12700;DHT22;6414;49.570;6.060;2023-07-29T13:31:25;22.70;99.90
12700;DHT22;6414;49.570;6.060;2023-07-29T13:34:19;22.50;99.90
12700;DHT22;6414;49.570;6.060;2023-07-29T13:37:01;22.50;99.90
12700;DHT22;6414;49.570;6.060;2023-07-29T13:39:48;22.50;99.90
12700;DHT22;6414;49.570;6.060;2023-07-29T13:42:34;22.50;99.90
12700;DHT22;6414;49.570;6.060;2023-07-29T13:45:20;22.80;99.90
12700;DHT22;6414;49.570;6.060;2023-07-29T13:48:06;22.60;99.90
12700;DHT22;6414;49.570;6.060;2023-07-29T13:50:53;22.20;99.90
12700;DHT22;6414;49.570;6.060;2023-07-29T13:53:39;22.20;99.90
12700;DHT22;6414;49.570;6.060;2023-07-29T13:56:25;22.40;99.90
12700;DHT22;6414;49.570;6.060;2023-07-29T13:59:12;22.70;99.90
12700;DHT22;6414;49.570;6.060;2023-07-29T14:01:57;22.70;99.90
12700;DHT22;6414;49.570;6.060;2023-07-29T14:04:44;22.80;99.90
12700;DHT22;6414;49.570;6.060;2023-07-29T14:07:30;22.80;99.90
12700;DHT22;6414;49.570;6.060;2023-07-29T14:10:16;22.80;99.90
12700;DHT22;6414;49.570;6.060;2023-07-29T14:13:02;22.50;99.90
12700;DHT22;6414;49.570;6.060;2023-07-29T14:15:49;22.20;99.90
12700;DHT22;6414;49.570;6.060;2023-07-29T14:18:35;22.10;99.90
12700;DHT22;6414;49.570;6.060;2023-07-29T14:21:21;22.30;99.90
12700;DHT22;6414;49.570;6.060;2023-07-29T14:24:07;22.40;99.90
12700;DHT22;6414;49.570;6.060;2023-07-29T14:26:54;22.80;99.90
12700;DHT22;6414;49.570;6.060;2023-07-29T14:29:40;23.00;99.90
12700;DHT22;6414;49.570;6.060;2023-07-29T14:32:26;22.90;99.90
12700;DHT22;6414;49.570;6.060;2023-07-29T14:35:12;23.00;99.90
12700;DHT22;6414;49.570;6.060;2023-07-29T14:37:58;23.20;99.90
12700;DHT22;6414;49.570;6.060;2023-07-29T14:40:47;23.40;99.90
12700;DHT22;6414;49.570;6.060;2023-07-29T14:43:33;23.40;99.90
12700;DHT22;6414;49.570;6.060;2023-07-29T14:46:18;23.40;99.90
12700;DHT22;6414;49.570;6.060;2023-07-29T14:49:04;23.40;99.90
12700;DHT22;6414;49.570;6.060;2023-07-29T14:51:50;23.30;99.90
12700;DHT22;6414;49.570;6.060;2023-07-29T14:54:37;23.30;99.90
12700;DHT22;6414;49.570;6.060;2023-07-29T14:57:23;23.20;99.90
12700;DHT22;6414;49.570;6.060;2023-07-29T15:00:10;23.20;99.90
12700;DHT22;6414;49.570;6.060;2023-07-29T15:02:56;23.20;99.90
12700;DHT22;6414;49.570;6.060;2023-07-29T15:05:42;22.90;99.90
12700;DHT22;6414;49.570;6.060;2023-07-29T15:08:29;23.10;99.90
12700;DHT22;6414;49.570;6.060;2023-07-29T15:11:15;23.10;99.90
12700;DHT22;6414;49.570;6.060;2023-07-29T15:14:01;23.00;99.90
12700;DHT22;6414;49.570;6.060;2023-07-29T15:16:47;22.80;99.90
12700;DHT22;6414;49.570;6.060;2023-07-29T15:19:34;22.70;99.90
12700;DHT22;6414;49.570;6.060;2023-07-29T15:22:20;22.70;99.90
12700;DHT22;6414;49.570;6.060;2023-07-29T15:25:08;22.80;99.90
12700;DHT22;6414;49.570;6.060;2023-07-29T15:27:53;22.50;99.90
12700;DHT22;6414;49.570;6.060;2023-07-29T15:30:39;22.70;99.90
12700;DHT22;6414;49.570;6.060;2023-07-29T15:33:26;22.70;99.90
12700;DHT22;6414;49.570;6.060;2023-07-29T15:36:12;22.70;99.90
12700;DHT22;6414;49.570;6.060;2023-07-29T15:38:59;22.50;99.90
12700;DHT22;6414;49.570;6.060;2023-07-29T15:41:45;22.50;99.90
12700;DHT22;6414;49.570;6.060;2023-07-29T15:44:31;22.50;99.90
12700;DHT22;6414;49.570;6.060;2023-07-29T15:47:18;22.30;99.90
12700;DHT22;6414;49.570;6.060;2023-07-29T15:50:05;22.30;99.90
12700;DHT22;6414;49.570;6.060;2023-07-29T15:52:51;22.30;99.90
12700;DHT22;6414;49.570;6.060;2023-07-29T15:55:38;22.20;99.90
12700;DHT22;6414;49.570;6.060;2023-07-29T15:58:25;22.10;99.90
12700;DHT22;6414;49.570;6.060;2023-07-29T16:01:11;22.10;99.90
12700;DHT22;6414;49.570;6.060;2023-07-29T16:03:57;22.00;99.90
12700;DHT22;6414;49.570;6.060;2023-07-29T16:06:43;22.10;99.90
12700;DHT22;6414;49.570;6.060;2023-07-29T16:09:29;22.10;99.90
12700;DHT22;6414;49.570;6.060;2023-07-29T16:12:15;22.10;99.90
12700;DHT22;6414;49.570;6.060;2023-07-29T16:15:02;22.20;99.90
12700;DHT22;6414;49.570;6.060;2023-07-29T16:17:48;22.40;99.90
12700;DHT22;6414;49.570;6.060;2023-07-29T16:20:35;22.30;99.90
12700;DHT22;6414;49.570;6.060;2023-07-29T16:23:22;22.30;99.90
12700;DHT22;6414;49.570;6.060;2023-07-29T16:26:08;22.30;99.90
12700;DHT22;6414;49.570;6.060;2023-07-29T16:28:55;22.20;99.90
12700;DHT22;6414;49.570;6.060;2023-07-29T16:31:42;22.10;99.90
12700;DHT22;6414;49.570;6.060;2023-07-29T16:34:28;22.10;99.90
12700;DHT22;6414;49.570;6.060;2023-07-29T16:37:14;22.10;99.90
12700;DHT22;6414;49.570;6.060;2023-07-29T16:40:01;22.00;99.90
12700;DHT22;6414;49.570;6.060;2023-07-29T16:42:47;22.00;99.90
12700;DHT22;6414;49.570;6.060;2023-07-29T16:45:34;21.90;99.90
12700;DHT22;6414;49.570;6.060;2023-07-29T16:48:21;22.00;99.90
12700;DHT22;6414;49.570;6.060;2023-07-29T16:51:07;22.00;99.90
12700;DHT22;6414;49.570;6.060;2023-07-29T16:53:53;22.00;99.90
12700;DHT22;6414;49.570;6.060;2023-07-29T16:56:39;21.90;99.90
12700;DHT22;6414;49.570;6.060;2023-07-29T16:59:25;21.90;99.90
12700;DHT22;6414;49.570;6.060;2023-07-29T17:02:12;21.80;99.90
12700;DHT22;6414;49.570;6.060;2023-07-29T17:04:58;21.70;99.90
12700;DHT22;6414;49.570;6.060;2023-07-29T17:07:44;21.50;99.90
12700;DHT22;6414;49.570;6.060;2023-07-29T17:10:30;21.40;99.90
12700;DHT22;6414;49.570;6.060;2023-07-29T17:13:16;21.40;99.90
12700;DHT22;6414;49.570;6.060;2023-07-29T17:16:02;21.30;99.90
12700;DHT22;6414;49.570;6.060;2023-07-29T17:18:48;21.20;99.90
12700;DHT22;6414;49.570;6.060;2023-07-29T17:21:34;21.20;99.90
12700;DHT22;6414;49.570;6.060;2023-07-29T17:24:20;21.10;99.90
12700;DHT22;6414;49.570;6.060;2023-07-29T17:27:06;21.10;99.90
12700;DHT22;6414;49.570;6.060;2023-07-29T17:29:52;21.10;99.90
12700;DHT22;6414;49.570;6.060;2023-07-29T17:32:39;21.10;99.90
12700;DHT22;6414;49.570;6.060;2023-07-29T17:35:25;21.10;99.90
12700;DHT22;6414;49.570;6.060;2023-07-29T17:38:12;21.10;99.90
12700;DHT22;6414;49.570;6.060;2023-07-29T17:40:59;21.10;99.90
12700;DHT22;6414;49.570;6.060;2023-07-29T17:43:45;21.00;99.90
12700;DHT22;6414;49.570;6.060;2023-07-29T17:46:31;21.10;99.90
12700;DHT22;6414;49.570;6.060;2023-07-29T17:49:16;21.00;99.90
12700;DHT22;6414;49.570;6.060;2023-07-29T17:52:03;21.00;99.90
12700;DHT22;6414;49.570;6.060;2023-07-29T17:54:50;21.00;99.90